createdAt,value
2023-02-22T00:03:39.039Z,36.67
2023-02-22T00:11:09.406Z,35.38
2023-02-22T00:14:51.200Z,37.70
2023-02-22T00:18:32.910Z,33.88
2023-02-22T00:22:18.998Z,35.83
2023-02-22T00:26:01.232Z,38.05
2023-02-22T00:29:48.374Z,35.47
2023-02-22T00:33:30.075Z,34.45
2023-02-22T00:37:11.872Z,32.90
2023-02-22T00:40:55.602Z,35.08
2023-02-22T00:44:37.288Z,32.50
2023-02-22T00:48:19.573Z,36.40
2023-02-22T00:52:02.536Z,33.05
2023-02-22T00:55:44.220Z,34.70
2023-02-22T00:59:25.904Z,34.05
2023-02-22T01:03:09.321Z,26.92
2023-02-22T01:06:51.268Z,22.65
2023-02-22T01:10:52.642Z,19.80
2023-02-22T01:14:34.552Z,19.73
2023-02-22T01:18:17.399Z,20.10
2023-02-22T01:26:55.323Z,22.52
2023-02-22T01:31:33.600Z,21.33
2023-02-22T01:35:18.477Z,20.75
2023-02-22T01:39:00.168Z,18.02
2023-02-22T01:43:38.312Z,19.48
2023-02-22T01:47:20.796Z,15.48
2023-02-22T01:51:58.805Z,14.55
2023-02-22T01:55:40.574Z,13.98
2023-02-22T01:59:22.418Z,13.63
2023-02-22T02:04:00.617Z,14.07
2023-02-22T02:07:45.505Z,11.00
2023-02-22T02:11:46.203Z,12.13
2023-02-22T02:15:31.171Z,10.55
2023-02-22T02:19:31.333Z,10.48
2023-02-22T02:24:09.390Z,10.77
2023-02-22T02:28:18.964Z,10.88
2023-02-22T02:32:38.407Z,12.68
2023-02-22T02:36:27.634Z,12.20
2023-02-22T02:40:26.509Z,14.60
2023-02-22T02:44:08.461Z,15.18
2023-02-22T02:47:53.691Z,13.82
2023-02-22T02:52:16.071Z,12.57
2023-02-22T02:55:59.818Z,10.82
2023-02-22T03:04:28.588Z,9.63
2023-02-22T03:08:20.091Z,9.40
2023-02-22T03:12:09.996Z,11.00
2023-02-22T03:16:07.006Z,13.18
2023-02-22T03:20:09.827Z,11.82
2023-02-22T03:24:09.811Z,16.05
2023-02-22T03:27:55.747Z,17.20
2023-02-22T03:31:48.448Z,20.05
2023-02-22T03:35:32.825Z,18.83
2023-02-22T03:39:16.167Z,19.27
2023-02-22T03:43:54.450Z,20.38
2023-02-22T03:47:42.002Z,20.60
2023-02-22T03:51:43.748Z,19.17
2023-02-22T03:55:25.456Z,21.17
2023-02-22T03:59:08.974Z,20.35
2023-02-22T04:03:46.926Z,20.55
2023-02-22T04:07:28.704Z,22.20
2023-02-22T04:11:14.873Z,23.33
2023-02-22T04:14:56.828Z,21.23
2023-02-22T04:18:38.519Z,22.40
2023-02-22T04:23:16.642Z,19.90
2023-02-22T04:26:58.339Z,20.85
2023-02-22T04:31:19.860Z,19.17
2023-02-22T04:35:01.874Z,21.17
2023-02-22T04:38:43.932Z,18.77
2023-02-22T04:42:28.427Z,19.23
2023-02-22T04:46:10.159Z,18.50
2023-02-22T04:50:48.326Z,18.92
2023-02-22T04:54:30.017Z,15.90
2023-02-22T04:58:11.832Z,20.65
2023-02-22T05:02:16.420Z,19.85
2023-02-22T05:05:58.175Z,16.05
2023-02-22T05:09:59.701Z,17.38
2023-02-22T05:13:42.293Z,19.50
2023-02-22T05:17:24.023Z,19.65
2023-02-22T05:21:06.951Z,20.48
2023-02-22T05:24:48.683Z,18.47
2023-02-22T05:28:30.473Z,18.02
2023-02-22T05:32:33.299Z,18.77
2023-02-22T05:36:15.057Z,19.50
2023-02-22T05:39:59.517Z,19.17
2023-02-22T05:43:41.320Z,19.65
2023-02-22T05:47:23.027Z,22.65
2023-02-22T05:51:47.596Z,20.98
2023-02-22T05:59:10.962Z,19.13
2023-02-22T06:03:49.163Z,18.92
2023-02-22T06:07:30.920Z,19.08
2023-02-22T06:12:14.931Z,18.30
2023-02-22T06:15:56.692Z,18.73
2023-02-22T06:19:39.028Z,19.42
2023-02-22T06:23:20.810Z,18.20
2023-02-22T06:27:02.558Z,18.45
2023-02-22T06:31:40.740Z,19.48
2023-02-22T06:35:22.712Z,17.00
2023-02-22T06:39:04.426Z,19.67
2023-02-22T06:42:49.249Z,18.73
2023-02-22T06:46:31.292Z,17.95
2023-02-22T06:50:25.444Z,19.60
2023-02-22T06:54:07.140Z,18.90
2023-02-22T06:57:48.887Z,16.77
2023-02-22T07:02:27.472Z,18.20
2023-02-22T07:06:10.762Z,22.48
2023-02-22T07:09:54.564Z,20.88
2023-02-22T07:17:18.030Z,22.95
2023-02-22T07:21:03.893Z,18.48
2023-02-22T07:24:45.634Z,19.83
2023-02-22T07:28:27.401Z,18.70
2023-02-22T07:32:33.240Z,17.50
2023-02-22T07:36:17.813Z,16.45
2023-02-22T07:40:00.778Z,16.75
2023-02-22T07:43:42.488Z,16.53
2023-02-22T07:47:24.217Z,18.38
2023-02-22T07:51:26.965Z,16.35
2023-02-22T07:55:08.656Z,17.52
2023-02-22T07:58:50.375Z,16.20
2023-02-22T08:03:28.566Z,18.58
2023-02-22T08:07:10.329Z,18.15
2023-02-22T08:11:31.816Z,18.95
2023-02-22T08:15:22.373Z,14.95
2023-02-22T08:19:04.149Z,14.00
2023-02-22T08:23:06.152Z,10.25
2023-02-22T08:26:47.930Z,12.77
2023-02-22T08:31:25.956Z,9.10
2023-02-22T08:35:07.900Z,11.73
2023-02-22T08:38:49.600Z,14.02
2023-02-22T08:43:27.768Z,12.48
2023-02-22T08:47:09.565Z,21.60
2023-02-22T08:51:47.768Z,10.98
2023-02-22T08:55:32.320Z,8.38
2023-02-22T09:03:15.862Z,9.60
2023-02-22T09:06:57.606Z,8.23
2023-02-22T09:10:40.621Z,7.78
2023-02-22T09:14:22.440Z,7.95
2023-02-22T09:18:04.749Z,4.68
2023-02-22T09:22:09.341Z,4.63
2023-02-22T09:25:51.025Z,5.00
2023-02-22T09:29:32.760Z,4.28
2023-02-22T09:33:16.693Z,3.05
2023-02-22T09:36:58.502Z,6.38
2023-02-22T09:40:49.539Z,0.77
2023-02-22T09:44:48.251Z,0.80
2023-02-22T09:48:31.864Z,1.40
2023-02-22T09:52:18.941Z,2.70
2023-02-22T09:56:21.281Z,1.88
2023-02-22T10:00:24.371Z,1.85
2023-02-22T10:04:10.894Z,1.20
2023-02-22T10:08:05.952Z,2.05
2023-02-22T10:12:00.547Z,0.95
2023-02-22T10:16:03.123Z,1.65
2023-02-22T10:20:14.995Z,2.10
2023-02-22T10:24:11.492Z,5.00
2023-02-22T10:27:57.848Z,2.22
2023-02-22T10:31:43.427Z,0.70
2023-02-22T10:35:27.713Z,1.58
2023-02-22T10:39:28.571Z,1.45
2023-02-22T10:43:50.167Z,1.00
2023-02-22T10:47:32.207Z,0.63
2023-02-22T10:51:35.131Z,4.78
2023-02-22T10:55:17.326Z,2.42
2023-02-22T10:59:02.351Z,0.45
2023-02-22T11:03:27.043Z,1.35
2023-02-22T11:07:13.962Z,6.38
2023-02-22T11:11:27.171Z,1.20
2023-02-22T11:15:22.279Z,3.17
2023-02-22T11:19:09.047Z,2.08
2023-02-22T11:22:54.746Z,1.38
2023-02-22T11:26:44.730Z,1.33
2023-02-22T11:30:30.835Z,0.90
2023-02-22T11:34:27.207Z,3.05
2023-02-22T11:38:16.197Z,1.95
2023-02-22T11:42:30.621Z,17.02
2023-02-22T11:46:14.520Z,5.10
2023-02-22T11:50:53.821Z,3.05
2023-02-22T11:54:59.338Z,4.40
2023-02-22T11:59:04.731Z,4.70
2023-02-22T12:03:20.405Z,0.98
2023-02-22T12:07:11.061Z,3.38
2023-02-22T12:11:12.409Z,2.38
2023-02-22T12:15:23.997Z,1.42
2023-02-22T12:19:15.082Z,3.50
2023-02-22T12:23:02.479Z,1.63
2023-02-22T12:26:47.281Z,2.97
2023-02-22T12:30:52.320Z,1.50
2023-02-22T12:34:55.151Z,1.83
2023-02-22T12:38:44.446Z,1.10
2023-02-22T12:43:05.373Z,3.20
2023-02-22T12:46:49.203Z,4.38
2023-02-22T12:50:56.710Z,7.00
2023-02-22T12:55:01.725Z,4.90
2023-02-22T12:58:58.760Z,2.20
2023-02-22T13:02:55.516Z,0.63
2023-02-22T13:06:55.592Z,1.77
2023-02-22T13:10:53.595Z,3.63
2023-02-22T13:14:41.132Z,2.03
2023-02-22T13:18:32.233Z,1.83
2023-02-22T13:22:24.602Z,1.35
2023-02-22T13:26:46.502Z,6.13
2023-02-22T13:30:36.786Z,4.45
2023-02-22T13:34:37.365Z,1.98
2023-02-22T13:38:46.602Z,1.67
2023-02-22T13:42:35.559Z,0.88
2023-02-22T13:46:35.424Z,3.28
2023-02-22T13:50:36.652Z,1.58
2023-02-22T13:54:20.623Z,0.75
2023-02-22T13:58:04.515Z,2.72
2023-02-22T14:01:53.382Z,2.58
2023-02-22T14:05:41.701Z,2.17
2023-02-22T14:09:45.492Z,2.33
2023-02-22T14:13:27.689Z,6.95
2023-02-22T14:17:25.837Z,5.40
2023-02-22T14:21:20.486Z,1.00
2023-02-22T14:25:02.246Z,2.95
2023-02-22T14:28:59.503Z,2.10
2023-02-22T14:32:41.517Z,4.05
2023-02-22T14:36:55.095Z,1.60
2023-02-22T14:40:39.052Z,1.87
2023-02-22T14:44:24.443Z,2.38
2023-02-22T14:48:13.697Z,1.42
2023-02-22T14:52:03.843Z,3.03
2023-02-22T14:55:52.617Z,5.60
2023-02-22T14:59:34.373Z,1.90
2023-02-22T15:03:37.734Z,2.88
2023-02-22T15:07:27.373Z,1.70
2023-02-22T15:11:31.095Z,1.23
2023-02-22T15:15:18.605Z,1.70
2023-02-22T15:19:03.808Z,6.55
2023-02-22T15:22:48.636Z,2.22
2023-02-22T15:26:36.168Z,4.68
2023-02-22T15:30:38.096Z,1.00
2023-02-22T15:34:24.701Z,2.42
2023-02-22T15:38:12.455Z,1.20
2023-02-22T15:42:04.571Z,4.00
2023-02-22T15:45:46.345Z,1.15
2023-02-22T15:49:29.299Z,3.33
2023-02-22T15:53:30.717Z,0.73
2023-02-22T15:57:17.639Z,1.15
2023-02-22T16:01:05.784Z,0.90
2023-02-22T16:04:59.026Z,1.77
2023-02-22T16:08:54.816Z,0.68
2023-02-22T16:12:37.606Z,1.27
2023-02-22T16:16:25.272Z,1.20
2023-02-22T16:20:13.246Z,2.30
2023-02-22T16:24:01.351Z,4.00
2023-02-22T16:32:15.449Z,3.97
2023-02-22T16:35:57.296Z,1.65
2023-02-22T16:39:40.816Z,2.78
2023-02-22T16:43:31.541Z,4.18
2023-02-22T16:47:13.232Z,1.90
2023-02-22T16:50:59.237Z,3.30
2023-02-22T16:54:43.255Z,2.38
2023-02-22T16:58:27.885Z,2.33
2023-02-22T17:02:15.407Z,1.92
2023-02-22T17:05:57.190Z,2.72
2023-02-22T17:09:39.559Z,2.72
2023-02-22T17:13:25.644Z,3.47
2023-02-22T17:17:09.920Z,2.72
2023-02-22T17:20:53.067Z,1.92
2023-02-22T17:24:35.066Z,3.60
2023-02-22T17:28:16.896Z,1.38
2023-02-22T17:31:59.980Z,2.15
2023-02-22T17:35:41.780Z,4.13
2023-02-22T17:39:23.592Z,2.63
2023-02-22T17:43:08.776Z,3.03
2023-02-22T17:46:50.491Z,4.97
2023-02-22T17:50:32.306Z,4.50
2023-02-22T17:54:13.997Z,5.20
2023-02-22T17:57:59.558Z,11.60
2023-02-22T18:01:43.909Z,9.45
2023-02-22T18:05:26.871Z,6.80
